sensor_id;sensor_type;location;lat;lon;timestamp;pressure;altitude;pressure_sealevel;temperature;humidity
60417;BME280;46263;44.726;10.396;2023-01-31T00:00:08;100795.69;;;6.35;59.39
60417;BME280;46263;44.726;10.396;2023-01-31T00:02:34;100792.63;;;6.33;59.52
60417;BME280;46263;44.726;10.396;2023-01-31T00:04:59;100790.16;;;6.35;59.96
60417;BME280;46263;44.726;10.396;2023-01-31T00:07:25;100804.44;;;6.28;59.69
60417;BME280;46263;44.726;10.396;2023-01-31T00:09:51;100800.69;;;6.31;59.97
60417;BME280;46263;44.726;10.396;2023-01-31T00:12:16;100809.91;;;6.23;60.13
60417;BME280;46263;44.726;10.396;2023-01-31T00:14:42;100804.97;;;6.12;60.12
60417;BME280;46263;44.726;10.396;2023-01-31T00:17:07;100806.41;;;6.08;60.55
60417;BME280;46263;44.726;10.396;2023-01-31T00:19:33;100815.00;;;6.10;60.77
60417;BME280;46263;44.726;10.396;2023-01-31T00:21:58;100827.03;;;6.21;60.59
60417;BME280;46263;44.726;10.396;2023-01-31T00:24:24;100827.47;;;6.34;59.78
60417;BME280;46263;44.726;10.396;2023-01-31T00:26:49;100832.63;;;6.41;59.63
60417;BME280;46263;44.726;10.396;2023-01-31T00:29:22;100830.03;;;6.37;59.75
60417;BME280;46263;44.726;10.396;2023-01-31T00:31:47;100832.22;;;6.48;59.75
60417;BME280;46263;44.726;10.396;2023-01-31T00:34:13;100843.41;;;6.53;59.70
60417;BME280;46263;44.726;10.396;2023-01-31T00:36:39;100849.03;;;6.59;59.59
60417;BME280;46263;44.726;10.396;2023-01-31T00:39:05;100849.91;;;6.50;59.09
60417;BME280;46263;44.726;10.396;2023-01-31T00:41:32;100853.47;;;6.51;59.05
60417;BME280;46263;44.726;10.396;2023-01-31T00:43:59;100861.22;;;6.47;59.64
60417;BME280;46263;44.726;10.396;2023-01-31T00:46:25;100854.63;;;6.44;59.64
60417;BME280;46263;44.726;10.396;2023-01-31T00:48:52;100857.88;;;6.43;59.29
60417;BME280;46263;44.726;10.396;2023-01-31T00:51:18;100846.78;;;6.43;59.65
60417;BME280;46263;44.726;10.396;2023-01-31T00:53:44;100856.97;;;6.32;60.06
60417;BME280;46263;44.726;10.396;2023-01-31T00:56:12;100855.03;;;6.23;59.98
60417;BME280;46263;44.726;10.396;2023-01-31T00:58:38;100869.13;;;6.20;60.00
60417;BME280;46263;44.726;10.396;2023-01-31T01:03:34;100873.34;;;6.15;60.17
60417;BME280;46263;44.726;10.396;2023-01-31T01:06:00;100885.66;;;6.14;59.53
60417;BME280;46263;44.726;10.396;2023-01-31T01:08:27;100895.47;;;6.10;59.84
60417;BME280;46263;44.726;10.396;2023-01-31T01:10:52;100901.47;;;6.08;60.57
60417;BME280;46263;44.726;10.396;2023-01-31T01:13:18;100903.00;;;6.09;60.18
60417;BME280;46263;44.726;10.396;2023-01-31T01:15:44;100903.69;;;6.04;60.32
60417;BME280;46263;44.726;10.396;2023-01-31T01:18:09;100908.63;;;6.00;60.17
60417;BME280;46263;44.726;10.396;2023-01-31T01:20:35;100919.44;;;5.98;60.34
60417;BME280;46263;44.726;10.396;2023-01-31T01:23:01;100921.66;;;5.94;60.88
60417;BME280;46263;44.726;10.396;2023-01-31T01:25:26;100929.56;;;5.87;60.97
60417;BME280;46263;44.726;10.396;2023-01-31T01:27:52;100934.66;;;5.88;61.08
60417;BME280;46263;44.726;10.396;2023-01-31T01:30:18;100929.75;;;5.83;60.94
60417;BME280;46263;44.726;10.396;2023-01-31T01:32:46;100920.13;;;5.93;60.48
60417;BME280;46263;44.726;10.396;2023-01-31T01:35:11;100930.28;;;5.96;60.81
60417;BME280;46263;44.726;10.396;2023-01-31T01:37:37;100922.91;;;5.93;61.32
60417;BME280;46263;44.726;10.396;2023-01-31T01:40:03;100928.94;;;5.92;61.36
60417;BME280;46263;44.726;10.396;2023-01-31T01:42:33;100937.69;;;5.90;60.79
60417;BME280;46263;44.726;10.396;2023-01-31T01:45:00;100939.63;;;5.99;60.56
60417;BME280;46263;44.726;10.396;2023-01-31T01:50:22;100951.41;;;6.08;60.36
60417;BME280;46263;44.726;10.396;2023-01-31T01:58:32;100944.50;;;6.04;60.31
60417;BME280;46263;44.726;10.396;2023-01-31T02:01:03;100942.97;;;6.03;60.35
60417;BME280;46263;44.726;10.396;2023-01-31T02:03:30;100946.53;;;6.03;60.20
60417;BME280;46263;44.726;10.396;2023-01-31T02:05:58;100951.78;;;6.01;60.01
60417;BME280;46263;44.726;10.396;2023-01-31T02:08:26;100965.94;;;6.03;59.65
60417;BME280;46263;44.726;10.396;2023-01-31T02:11:17;100967.28;;;6.08;59.64
60417;BME280;46263;44.726;10.396;2023-01-31T02:13:42;100956.66;;;6.06;60.00
60417;BME280;46263;44.726;10.396;2023-01-31T02:16:10;100950.53;;;6.02;59.53
60417;BME280;46263;44.726;10.396;2023-01-31T02:18:35;100952.63;;;6.07;59.69
60417;BME280;46263;44.726;10.396;2023-01-31T02:29:16;100951.00;;;5.86;60.05
60417;BME280;46263;44.726;10.396;2023-01-31T02:37:31;100958.59;;;5.39;61.46
60417;BME280;46263;44.726;10.396;2023-01-31T02:40:10;100958.69;;;5.07;61.84
60417;BME280;46263;44.726;10.396;2023-01-31T02:45:51;100953.78;;;5.25;61.78
60417;BME280;46263;44.726;10.396;2023-01-31T02:48:41;100963.28;;;5.33;61.36
60417;BME280;46263;44.726;10.396;2023-01-31T02:51:17;100956.78;;;5.36;61.44
60417;BME280;46263;44.726;10.396;2023-01-31T02:54:17;100951.34;;;5.42;60.93
60417;BME280;46263;44.726;10.396;2023-01-31T02:56:46;100950.41;;;5.45;61.34
60417;BME280;46263;44.726;10.396;2023-01-31T02:59:18;100960.56;;;5.48;61.13
60417;BME280;46263;44.726;10.396;2023-01-31T03:01:53;100962.53;;;5.47;60.96
60417;BME280;46263;44.726;10.396;2023-01-31T03:04:19;100956.78;;;5.36;62.01
60417;BME280;46263;44.726;10.396;2023-01-31T03:09:48;100962.84;;;5.49;61.46
60417;BME280;46263;44.726;10.396;2023-01-31T03:20:14;100978.34;;;5.55;60.49
60417;BME280;46263;44.726;10.396;2023-01-31T03:22:44;100982.53;;;5.51;60.92
60417;BME280;46263;44.726;10.396;2023-01-31T03:25:13;100985.63;;;5.53;60.23
60417;BME280;46263;44.726;10.396;2023-01-31T03:27:45;100980.53;;;5.51;60.85
60417;BME280;46263;44.726;10.396;2023-01-31T03:30:19;100987.13;;;5.54;60.92
60417;BME280;46263;44.726;10.396;2023-01-31T03:32:58;100988.84;;;5.51;60.55
60417;BME280;46263;44.726;10.396;2023-01-31T03:35:28;100982.53;;;5.51;60.83
60417;BME280;46263;44.726;10.396;2023-01-31T03:38:22;100996.09;;;5.49;60.33
60417;BME280;46263;44.726;10.396;2023-01-31T03:40:57;100999.06;;;5.46;60.78
60417;BME280;46263;44.726;10.396;2023-01-31T03:43:48;101008.25;;;5.51;60.33
60417;BME280;46263;44.726;10.396;2023-01-31T03:46:23;101009.94;;;5.72;60.07
60417;BME280;46263;44.726;10.396;2023-01-31T03:48:53;101011.91;;;5.81;60.34
60417;BME280;46263;44.726;10.396;2023-01-31T03:51:24;101017.56;;;5.86;60.44
60417;BME280;46263;44.726;10.396;2023-01-31T03:53:55;101011.53;;;5.88;60.00
60417;BME280;46263;44.726;10.396;2023-01-31T03:59:08;101010.69;;;5.96;59.35
60417;BME280;46263;44.726;10.396;2023-01-31T04:01:40;101018.84;;;6.00;59.50
60417;BME280;46263;44.726;10.396;2023-01-31T04:04:10;101014.41;;;5.93;59.42
60417;BME280;46263;44.726;10.396;2023-01-31T04:06:39;101015.28;;;5.99;58.39
60417;BME280;46263;44.726;10.396;2023-01-31T04:09:04;101014.03;;;6.00;58.76
60417;BME280;46263;44.726;10.396;2023-01-31T04:11:36;101007.34;;;5.92;58.91
60417;BME280;46263;44.726;10.396;2023-01-31T04:14:02;101006.75;;;5.88;58.01
60417;BME280;46263;44.726;10.396;2023-01-31T04:16:27;101008.97;;;5.75;58.00
60417;BME280;46263;44.726;10.396;2023-01-31T04:18:53;101016.50;;;5.60;58.77
60417;BME280;46263;44.726;10.396;2023-01-31T04:21:21;101018.78;;;5.62;59.21
60417;BME280;46263;44.726;10.396;2023-01-31T04:23:47;101014.44;;;5.47;59.82
60417;BME280;46263;44.726;10.396;2023-01-31T04:26:13;101019.19;;;5.46;60.21
60417;BME280;46263;44.726;10.396;2023-01-31T04:28:39;101011.00;;;5.51;59.76
60417;BME280;46263;44.726;10.396;2023-01-31T04:31:05;101003.19;;;5.50;59.87
60417;BME280;46263;44.726;10.396;2023-01-31T04:33:30;101013.47;;;5.49;60.38
60417;BME280;46263;44.726;10.396;2023-01-31T04:35:56;101002.25;;;5.53;59.79
60417;BME280;46263;44.726;10.396;2023-01-31T04:38:21;101010.84;;;5.55;59.46
60417;BME280;46263;44.726;10.396;2023-01-31T04:40:47;101003.47;;;5.52;59.46
60417;BME280;46263;44.726;10.396;2023-01-31T04:43:13;101003.84;;;5.45;59.33
60417;BME280;46263;44.726;10.396;2023-01-31T04:45:38;101001.81;;;5.46;59.63
60417;BME280;46263;44.726;10.396;2023-01-31T04:48:04;101004.28;;;5.44;59.38
60417;BME280;46263;44.726;10.396;2023-01-31T04:50:30;101010.78;;;5.41;59.99
60417;BME280;46263;44.726;10.396;2023-01-31T04:52:55;101006.94;;;5.38;60.42
60417;BME280;46263;44.726;10.396;2023-01-31T04:55:21;101014.19;;;5.36;60.22
60417;BME280;46263;44.726;10.396;2023-01-31T04:57:47;101021.31;;;5.28;60.41
60417;BME280;46263;44.726;10.396;2023-01-31T05:00:13;101018.25;;;5.02;61.16
60417;BME280;46263;44.726;10.396;2023-01-31T05:02:39;101016.09;;;4.97;61.57
60417;BME280;46263;44.726;10.396;2023-01-31T05:05:05;101016.97;;;5.12;61.18
60417;BME280;46263;44.726;10.396;2023-01-31T05:07:31;101024.97;;;5.10;61.07
60417;BME280;46263;44.726;10.396;2023-01-31T05:09:57;101023.91;;;5.08;60.57
60417;BME280;46263;44.726;10.396;2023-01-31T05:12:22;101029.53;;;4.90;61.05
60417;BME280;46263;44.726;10.396;2023-01-31T05:14:48;101022.75;;;4.91;61.03
60417;BME280;46263;44.726;10.396;2023-01-31T05:17:13;101026.84;;;5.04;60.75
60417;BME280;46263;44.726;10.396;2023-01-31T05:19:39;101030.50;;;5.10;60.42
60417;BME280;46263;44.726;10.396;2023-01-31T05:22:06;101028.44;;;5.20;60.02
60417;BME280;46263;44.726;10.396;2023-01-31T05:24:32;101042.13;;;5.23;59.67
60417;BME280;46263;44.726;10.396;2023-01-31T05:27:00;101041.38;;;5.23;60.06
60417;BME280;46263;44.726;10.396;2023-01-31T05:29:27;101042.59;;;5.22;60.04
60417;BME280;46263;44.726;10.396;2023-01-31T05:31:55;101041.41;;;5.14;59.99
60417;BME280;46263;44.726;10.396;2023-01-31T05:34:22;101036.47;;;5.18;60.30
60417;BME280;46263;44.726;10.396;2023-01-31T05:36:50;101043.53;;;5.19;60.04
60417;BME280;46263;44.726;10.396;2023-01-31T05:39:15;101046.31;;;5.19;60.04
60417;BME280;46263;44.726;10.396;2023-01-31T05:41:41;101050.91;;;5.22;59.81
60417;BME280;46263;44.726;10.396;2023-01-31T05:44:07;101056.97;;;5.11;59.65
60417;BME280;46263;44.726;10.396;2023-01-31T05:46:33;101053.19;;;5.00;59.80
60417;BME280;46263;44.726;10.396;2023-01-31T05:48:59;101048.84;;;5.08;60.11
60417;BME280;46263;44.726;10.396;2023-01-31T05:51:24;101045.41;;;5.13;59.80
60417;BME280;46263;44.726;10.396;2023-01-31T05:53:50;101049.84;;;5.19;59.09
60417;BME280;46263;44.726;10.396;2023-01-31T05:56:16;101051.06;;;5.27;59.60
60417;BME280;46263;44.726;10.396;2023-01-31T05:58:41;101048.41;;;5.33;59.57
60417;BME280;46263;44.726;10.396;2023-01-31T06:01:07;101052.06;;;5.39;59.11
60417;BME280;46263;44.726;10.396;2023-01-31T06:03:33;101050.81;;;5.40;59.00
60417;BME280;46263;44.726;10.396;2023-01-31T06:05:59;101063.44;;;5.41;59.05
60417;BME280;46263;44.726;10.396;2023-01-31T06:08:25;101056.63;;;5.42;59.44
60417;BME280;46263;44.726;10.396;2023-01-31T06:10:50;101066.78;;;5.45;59.15
60417;BME280;46263;44.726;10.396;2023-01-31T06:13:16;101065.13;;;5.38;59.31
60417;BME280;46263;44.726;10.396;2023-01-31T06:15:44;101078.44;;;5.25;59.08
60417;BME280;46263;44.726;10.396;2023-01-31T06:18:10;101088.28;;;5.26;59.17
60417;BME280;46263;44.726;10.396;2023-01-31T06:20:36;101092.81;;;5.15;58.82
60417;BME280;46263;44.726;10.396;2023-01-31T06:23:03;101091.44;;;5.10;59.77
60417;BME280;46263;44.726;10.396;2023-01-31T06:25:30;101097.91;;;5.07;59.12
60417;BME280;46263;44.726;10.396;2023-01-31T06:27:56;101100.94;;;5.18;59.16
60417;BME280;46263;44.726;10.396;2023-01-31T06:30:21;101100.97;;;5.09;59.09
60417;BME280;46263;44.726;10.396;2023-01-31T06:32:47;101107.31;;;5.01;59.96
60417;BME280;46263;44.726;10.396;2023-01-31T06:35:13;101119.03;;;4.96;59.46
60417;BME280;46263;44.726;10.396;2023-01-31T06:37:38;101124.84;;;5.07;59.58
60417;BME280;46263;44.726;10.396;2023-01-31T06:40:04;101127.88;;;5.18;59.39
60417;BME280;46263;44.726;10.396;2023-01-31T06:42:30;101134.59;;;5.26;59.13
60417;BME280;46263;44.726;10.396;2023-01-31T06:44:56;101128.19;;;5.20;59.62
60417;BME280;46263;44.726;10.396;2023-01-31T06:47:21;101142.22;;;5.07;59.74
60417;BME280;46263;44.726;10.396;2023-01-31T06:49:47;101153.97;;;4.93;61.96
60417;BME280;46263;44.726;10.396;2023-01-31T06:52:13;101160.56;;;4.87;61.24
60417;BME280;46263;44.726;10.396;2023-01-31T06:54:38;101168.22;;;5.01;60.23
60417;BME280;46263;44.726;10.396;2023-01-31T06:57:04;101172.06;;;5.12;60.01
60417;BME280;46263;44.726;10.396;2023-01-31T06:59:29;101174.50;;;5.19;59.43
60417;BME280;46263;44.726;10.396;2023-01-31T07:01:55;101182.97;;;5.25;59.12
60417;BME280;46263;44.726;10.396;2023-01-31T07:04:20;101185.91;;;5.12;62.84
60417;BME280;46263;44.726;10.396;2023-01-31T07:06:46;101197.19;;;5.00;60.83
60417;BME280;46263;44.726;10.396;2023-01-31T07:09:11;101194.09;;;4.98;60.83
60417;BME280;46263;44.726;10.396;2023-01-31T07:11:37;101198.41;;;4.90;60.18
60417;BME280;46263;44.726;10.396;2023-01-31T07:14:03;101192.53;;;5.06;60.04
60417;BME280;46263;44.726;10.396;2023-01-31T07:16:29;101194.06;;;5.16;59.81
60417;BME280;46263;44.726;10.396;2023-01-31T07:18:55;101200.03;;;5.23;59.84
60417;BME280;46263;44.726;10.396;2023-01-31T07:21:22;101189.56;;;5.27;59.34
60417;BME280;46263;44.726;10.396;2023-01-31T07:23:48;101190.78;;;5.35;59.95
60417;BME280;46263;44.726;10.396;2023-01-31T07:26:14;101194.31;;;5.36;59.63
60417;BME280;46263;44.726;10.396;2023-01-31T07:28:39;101189.66;;;5.42;59.55
60417;BME280;46263;44.726;10.396;2023-01-31T07:31:11;101183.81;;;5.49;59.22
60417;BME280;46263;44.726;10.396;2023-01-31T07:33:38;101188.69;;;5.53;59.30
60417;BME280;46263;44.726;10.396;2023-01-31T07:36:05;101194.06;;;5.57;59.77
60417;BME280;46263;44.726;10.396;2023-01-31T07:38:31;101191.75;;;5.64;59.41
60417;BME280;46263;44.726;10.396;2023-01-31T07:41:02;101195.09;;;5.68;59.85
60417;BME280;46263;44.726;10.396;2023-01-31T07:43:29;101191.69;;;5.73;60.55
60417;BME280;46263;44.726;10.396;2023-01-31T07:45:55;101197.84;;;5.77;60.13
60417;BME280;46263;44.726;10.396;2023-01-31T07:48:21;101201.25;;;5.81;60.70
60417;BME280;46263;44.726;10.396;2023-01-31T07:50:51;101213.53;;;5.89;60.11
60417;BME280;46263;44.726;10.396;2023-01-31T07:53:18;101219.16;;;5.95;60.62
60417;BME280;46263;44.726;10.396;2023-01-31T07:55:44;101222.84;;;6.01;60.01
60417;BME280;46263;44.726;10.396;2023-01-31T07:58:14;101209.22;;;5.88;60.65
60417;BME280;46263;44.726;10.396;2023-01-31T08:00:40;101212.75;;;5.89;60.21
60417;BME280;46263;44.726;10.396;2023-01-31T08:03:27;101213.75;;;6.00;60.08
60417;BME280;46263;44.726;10.396;2023-01-31T08:06:10;101215.06;;;6.14;59.79
60417;BME280;46263;44.726;10.396;2023-01-31T08:08:37;101223.63;;;6.25;60.16
60417;BME280;46263;44.726;10.396;2023-01-31T08:11:03;101219.72;;;6.31;59.65
60417;BME280;46263;44.726;10.396;2023-01-31T08:13:31;101227.34;;;6.45;59.35
60417;BME280;46263;44.726;10.396;2023-01-31T08:15:57;101223.44;;;6.51;59.24
60417;BME280;46263;44.726;10.396;2023-01-31T08:18:22;101231.81;;;6.42;59.73
60417;BME280;46263;44.726;10.396;2023-01-31T08:20:48;101235.88;;;6.41;60.18
60417;BME280;46263;44.726;10.396;2023-01-31T08:23:13;101228.91;;;6.46;59.96
60417;BME280;46263;44.726;10.396;2023-01-31T08:25:39;101231.69;;;6.60;59.97
60417;BME280;46263;44.726;10.396;2023-01-31T08:28:05;101229.16;;;6.71;60.11
60417;BME280;46263;44.726;10.396;2023-01-31T08:30:30;101235.00;;;6.88;60.00
60417;BME280;46263;44.726;10.396;2023-01-31T08:32:56;101238.75;;;6.99;60.24
60417;BME280;46263;44.726;10.396;2023-01-31T08:35:24;101238.41;;;7.06;60.09
60417;BME280;46263;44.726;10.396;2023-01-31T08:37:51;101244.94;;;7.17;59.29
60417;BME280;46263;44.726;10.396;2023-01-31T08:40:16;101243.03;;;7.23;59.37
60417;BME280;46263;44.726;10.396;2023-01-31T08:42:42;101237.84;;;7.31;59.16
60417;BME280;46263;44.726;10.396;2023-01-31T08:45:08;101241.78;;;7.39;58.95
60417;BME280;46263;44.726;10.396;2023-01-31T08:47:34;101244.25;;;7.51;58.01
60417;BME280;46263;44.726;10.396;2023-01-31T08:50:01;101249.25;;;7.47;59.36
60417;BME280;46263;44.726;10.396;2023-01-31T08:52:26;101252.34;;;7.49;59.77
60417;BME280;46263;44.726;10.396;2023-01-31T08:54:52;101255.00;;;7.58;59.74
60417;BME280;46263;44.726;10.396;2023-01-31T08:57:17;101247.03;;;7.66;59.31
60417;BME280;46263;44.726;10.396;2023-01-31T08:59:45;101255.28;;;7.75;59.00
60417;BME280;46263;44.726;10.396;2023-01-31T09:02:10;101258.91;;;7.81;58.86
60417;BME280;46263;44.726;10.396;2023-01-31T09:04:36;101264.56;;;7.86;58.60
60417;BME280;46263;44.726;10.396;2023-01-31T09:07:02;101269.63;;;7.88;58.30
60417;BME280;46263;44.726;10.396;2023-01-31T09:09:27;101272.91;;;7.86;58.42
60417;BME280;46263;44.726;10.396;2023-01-31T09:11:53;101283.22;;;8.00;59.00
60417;BME280;46263;44.726;10.396;2023-01-31T09:14:18;101283.41;;;8.11;59.04
60417;BME280;46263;44.726;10.396;2023-01-31T09:16:44;101280.13;;;8.27;59.10
60417;BME280;46263;44.726;10.396;2023-01-31T09:19:11;101287.66;;;8.41;59.06
60417;BME280;46263;44.726;10.396;2023-01-31T09:21:37;101277.94;;;8.51;59.63
60417;BME280;46263;44.726;10.396;2023-01-31T09:24:02;101290.78;;;8.63;59.75
60417;BME280;46263;44.726;10.396;2023-01-31T09:26:29;101291.59;;;8.69;59.59
60417;BME280;46263;44.726;10.396;2023-01-31T09:28:54;101290.91;;;8.73;59.19
60417;BME280;46263;44.726;10.396;2023-01-31T09:31:22;101296.03;;;8.80;58.89
60417;BME280;46263;44.726;10.396;2023-01-31T09:33:48;101298.91;;;8.86;59.21
60417;BME280;46263;44.726;10.396;2023-01-31T09:36:16;101303.09;;;8.96;59.79
60417;BME280;46263;44.726;10.396;2023-01-31T09:38:42;101292.50;;;9.00;59.90
60417;BME280;46263;44.726;10.396;2023-01-31T09:43:54;101301.63;;;9.20;59.92
60417;BME280;46263;44.726;10.396;2023-01-31T09:46:23;101309.81;;;9.29;59.38
60417;BME280;46263;44.726;10.396;2023-01-31T09:48:53;101316.59;;;9.23;60.07
60417;BME280;46263;44.726;10.396;2023-01-31T09:51:19;101306.75;;;9.27;59.95
60417;BME280;46263;44.726;10.396;2023-01-31T09:53:46;101286.28;;;9.36;59.86
60417;BME280;46263;44.726;10.396;2023-01-31T09:56:20;101283.84;;;9.43;59.55
60417;BME280;46263;44.726;10.396;2023-01-31T10:01:47;101291.00;;;9.49;59.53
60417;BME280;46263;44.726;10.396;2023-01-31T10:07:08;101300.06;;;9.70;58.24
60417;BME280;46263;44.726;10.396;2023-01-31T10:09:59;101293.28;;;9.76;57.64
60417;BME280;46263;44.726;10.396;2023-01-31T10:12:32;101300.97;;;9.87;57.51
60417;BME280;46263;44.726;10.396;2023-01-31T10:15:04;101298.84;;;10.02;57.29
60417;BME280;46263;44.726;10.396;2023-01-31T10:17:42;101297.38;;;10.12;56.32
60417;BME280;46263;44.726;10.396;2023-01-31T10:20:19;101294.88;;;10.14;56.37
60417;BME280;46263;44.726;10.396;2023-01-31T10:22:53;101287.06;;;10.23;56.10
60417;BME280;46263;44.726;10.396;2023-01-31T10:25:33;101285.03;;;10.24;56.38
60417;BME280;46263;44.726;10.396;2023-01-31T10:28:21;101283.50;;;10.23;56.30
60417;BME280;46263;44.726;10.396;2023-01-31T10:33:54;101281.31;;;10.37;56.37
60417;BME280;46263;44.726;10.396;2023-01-31T10:36:35;101273.72;;;10.43;55.67
60417;BME280;46263;44.726;10.396;2023-01-31T10:47:52;101257.50;;;10.47;56.54
60417;BME280;46263;44.726;10.396;2023-01-31T10:53:09;101253.00;;;10.66;56.25
60417;BME280;46263;44.726;10.396;2023-01-31T10:55:43;101246.22;;;10.84;56.17
60417;BME280;46263;44.726;10.396;2023-01-31T10:58:16;101247.78;;;10.96;56.37
60417;BME280;46263;44.726;10.396;2023-01-31T11:00:42;101248.31;;;11.05;55.95
60417;BME280;46263;44.726;10.396;2023-01-31T11:03:12;101245.78;;;11.12;55.25
60417;BME280;46263;44.726;10.396;2023-01-31T11:05:56;101246.81;;;11.10;55.47
60417;BME280;46263;44.726;10.396;2023-01-31T11:08:33;101232.28;;;11.06;55.37
60417;BME280;46263;44.726;10.396;2023-01-31T11:11:11;101227.72;;;10.97;55.74
60417;BME280;46263;44.726;10.396;2023-01-31T11:13:38;101225.69;;;11.09;55.86
60417;BME280;46263;44.726;10.396;2023-01-31T11:16:09;101217.56;;;11.16;55.70
60417;BME280;46263;44.726;10.396;2023-01-31T11:21:08;101222.66;;;11.23;55.18
60417;BME280;46263;44.726;10.396;2023-01-31T11:23:35;101217.59;;;11.38;54.64
60417;BME280;46263;44.726;10.396;2023-01-31T11:26:01;101219.63;;;11.43;54.88
60417;BME280;46263;44.726;10.396;2023-01-31T11:28:34;101214.28;;;11.39;54.94
60417;BME280;46263;44.726;10.396;2023-01-31T11:31:02;101216.38;;;11.61;54.76
60417;BME280;46263;44.726;10.396;2023-01-31T11:34:16;101212.53;;;11.64;54.65
60417;BME280;46263;44.726;10.396;2023-01-31T11:36:43;101210.50;;;11.64;54.53
60417;BME280;46263;44.726;10.396;2023-01-31T11:41:54;101206.94;;;11.69;54.45
60417;BME280;46263;44.726;10.396;2023-01-31T11:44:21;101207.72;;;11.70;53.76
60417;BME280;46263;44.726;10.396;2023-01-31T11:47:02;101202.59;;;11.79;53.39
60417;BME280;46263;44.726;10.396;2023-01-31T11:49:38;101203.63;;;11.82;54.02
60417;BME280;46263;44.726;10.396;2023-01-31T11:52:14;101197.75;;;11.91;54.47
60417;BME280;46263;44.726;10.396;2023-01-31T11:55:05;101206.16;;;12.01;53.85
60417;BME280;46263;44.726;10.396;2023-01-31T11:57:33;101199.75;;;12.01;53.73
60417;BME280;46263;44.726;10.396;2023-01-31T12:00:02;101204.34;;;11.98;53.16
60417;BME280;46263;44.726;10.396;2023-01-31T12:02:39;101204.09;;;11.96;53.58
60417;BME280;46263;44.726;10.396;2023-01-31T12:05:15;101204.84;;;12.13;52.97
60417;BME280;46263;44.726;10.396;2023-01-31T12:07:47;101200.22;;;12.21;52.84
60417;BME280;46263;44.726;10.396;2023-01-31T12:10:34;101209.41;;;12.16;53.30
60417;BME280;46263;44.726;10.396;2023-01-31T12:13:13;101198.75;;;12.09;53.04
60417;BME280;46263;44.726;10.396;2023-01-31T12:18:36;101198.22;;;12.16;53.71
60417;BME280;46263;44.726;10.396;2023-01-31T12:26:47;101180.16;;;12.01;54.26
60417;BME280;46263;44.726;10.396;2023-01-31T12:34:47;101174.47;;;12.28;54.74
60417;BME280;46263;44.726;10.396;2023-01-31T12:43:02;101163.50;;;12.36;54.41
60417;BME280;46263;44.726;10.396;2023-01-31T12:46:06;101170.66;;;12.31;54.70
60417;BME280;46263;44.726;10.396;2023-01-31T12:48:53;101163.75;;;12.32;54.12
60417;BME280;46263;44.726;10.396;2023-01-31T12:51:49;101154.78;;;12.45;54.33
60417;BME280;46263;44.726;10.396;2023-01-31T12:57:41;101153.72;;;12.53;53.34
60417;BME280;46263;44.726;10.396;2023-01-31T13:00:31;101142.19;;;12.68;53.01
60417;BME280;46263;44.726;10.396;2023-01-31T13:05:33;101141.22;;;12.60;53.19
60417;BME280;46263;44.726;10.396;2023-01-31T13:08:22;101131.50;;;12.61;53.57
60417;BME280;46263;44.726;10.396;2023-01-31T13:13:27;101121.75;;;12.72;53.43
60417;BME280;46263;44.726;10.396;2023-01-31T13:18:51;101123.13;;;12.55;53.80
60417;BME280;46263;44.726;10.396;2023-01-31T13:21:23;101120.03;;;12.64;54.00
60417;BME280;46263;44.726;10.396;2023-01-31T13:23:56;101114.66;;;12.66;53.61
60417;BME280;46263;44.726;10.396;2023-01-31T13:26:35;101116.94;;;12.68;53.68
60417;BME280;46263;44.726;10.396;2023-01-31T13:29:08;101114.97;;;12.57;53.73
60417;BME280;46263;44.726;10.396;2023-01-31T13:31:45;101107.50;;;12.71;53.60
60417;BME280;46263;44.726;10.396;2023-01-31T13:34:25;101114.09;;;12.73;53.42
60417;BME280;46263;44.726;10.396;2023-01-31T13:36:59;101108.53;;;12.68;53.56
60417;BME280;46263;44.726;10.396;2023-01-31T13:39:41;101109.84;;;12.61;54.09
60417;BME280;46263;44.726;10.396;2023-01-31T13:42:12;101105.50;;;12.60;54.67
60417;BME280;46263;44.726;10.396;2023-01-31T13:44:39;101104.00;;;12.59;54.82
60417;BME280;46263;44.726;10.396;2023-01-31T13:47:43;101099.66;;;12.58;54.16
60417;BME280;46263;44.726;10.396;2023-01-31T13:53:35;101088.94;;;12.62;54.26
60417;BME280;46263;44.726;10.396;2023-01-31T13:56:08;101091.31;;;12.47;54.34
60417;BME280;46263;44.726;10.396;2023-01-31T13:58:35;101091.84;;;12.46;53.73
60417;BME280;46263;44.726;10.396;2023-01-31T14:01:07;101092.59;;;12.46;54.00
60417;BME280;46263;44.726;10.396;2023-01-31T14:14:45;101082.94;;;12.36;53.78
60417;BME280;46263;44.726;10.396;2023-01-31T14:22:24;101081.50;;;12.24;52.54
60417;BME280;46263;44.726;10.396;2023-01-31T14:27:44;101075.91;;;12.24;51.89
60417;BME280;46263;44.726;10.396;2023-01-31T14:32:45;101075.13;;;12.24;51.95
60417;BME280;46263;44.726;10.396;2023-01-31T14:54:25;101073.34;;;12.26;52.23
60417;BME280;46263;44.726;10.396;2023-01-31T14:57:19;101071.03;;;12.25;52.16
60417;BME280;46263;44.726;10.396;2023-01-31T15:05:06;101071.09;;;12.19;52.04
60417;BME280;46263;44.726;10.396;2023-01-31T15:07:33;101072.63;;;12.15;52.30
60417;BME280;46263;44.726;10.396;2023-01-31T15:09:58;101065.03;;;12.04;51.93
60417;BME280;46263;44.726;10.396;2023-01-31T15:12:53;101070.34;;;12.13;52.21
60417;BME280;46263;44.726;10.396;2023-01-31T15:15:32;101078.56;;;12.00;52.74
60417;BME280;46263;44.726;10.396;2023-01-31T15:18:03;101066.81;;;12.07;51.87
60417;BME280;46263;44.726;10.396;2023-01-31T15:20:40;101061.47;;;12.04;52.24
60417;BME280;46263;44.726;10.396;2023-01-31T15:23:19;101062.72;;;12.08;51.92
60417;BME280;46263;44.726;10.396;2023-01-31T15:25:47;101062.50;;;12.01;52.09
60417;BME280;46263;44.726;10.396;2023-01-31T15:28:16;101066.28;;;12.03;52.22
60417;BME280;46263;44.726;10.396;2023-01-31T15:30:44;101064.25;;;12.09;51.73